sensor_id;sensor_type;location;lat;lon;timestamp;P1;durP1;ratioP1;P2;durP2;ratioP2
14722;SDS011;7452;55.594;12.986;2022-12-29T00:00:59;14.37;;;6.10;;
14722;SDS011;7452;55.594;12.986;2022-12-29T00:03:29;14.57;;;6.63;;
14722;SDS011;7452;55.594;12.986;2022-12-29T00:05:56;10.53;;;6.07;;
14722;SDS011;7452;55.594;12.986;2022-12-29T00:08:24;9.87;;;5.90;;
14722;SDS011;7452;55.594;12.986;2022-12-29T00:11:04;13.27;;;6.40;;
14722;SDS011;7452;55.594;12.986;2022-12-29T00:13:32;9.67;;;6.80;;
14722;SDS011;7452;55.594;12.986;2022-12-29T00:16:16;14.07;;;6.40;;
14722;SDS011;7452;55.594;12.986;2022-12-29T00:18:47;10.93;;;6.27;;
14722;SDS011;7452;55.594;12.986;2022-12-29T00:21:15;12.60;;;6.23;;
14722;SDS011;7452;55.594;12.986;2022-12-29T00:24:00;10.97;;;5.97;;
14722;SDS011;7452;55.594;12.986;2022-12-29T00:26:48;10.17;;;5.60;;
14722;SDS011;7452;55.594;12.986;2022-12-29T00:29:36;11.87;;;5.73;;
14722;SDS011;7452;55.594;12.986;2022-12-29T00:32:21;10.67;;;5.90;;
14722;SDS011;7452;55.594;12.986;2022-12-29T00:35:11;11.77;;;5.47;;
14722;SDS011;7452;55.594;12.986;2022-12-29T00:37:49;13.00;;;5.50;;
14722;SDS011;7452;55.594;12.986;2022-12-29T00:40:36;11.17;;;5.83;;
14722;SDS011;7452;55.594;12.986;2022-12-29T00:43:20;9.60;;;5.83;;
14722;SDS011;7452;55.594;12.986;2022-12-29T00:46:05;14.67;;;6.20;;
14722;SDS011;7452;55.594;12.986;2022-12-29T00:48:32;12.50;;;6.53;;
14722;SDS011;7452;55.594;12.986;2022-12-29T00:51:20;12.47;;;6.17;;
14722;SDS011;7452;55.594;12.986;2022-12-29T00:53:47;12.43;;;6.40;;
14722;SDS011;7452;55.594;12.986;2022-12-29T00:56:15;14.60;;;6.97;;
14722;SDS011;7452;55.594;12.986;2022-12-29T00:58:43;12.07;;;6.57;;
14722;SDS011;7452;55.594;12.986;2022-12-29T01:01:09;15.30;;;7.33;;
14722;SDS011;7452;55.594;12.986;2022-12-29T01:03:37;11.43;;;6.37;;
14722;SDS011;7452;55.594;12.986;2022-12-29T01:06:06;13.23;;;6.40;;
14722;SDS011;7452;55.594;12.986;2022-12-29T01:08:36;11.53;;;6.80;;
14722;SDS011;7452;55.594;12.986;2022-12-29T01:11:04;12.33;;;7.80;;
14722;SDS011;7452;55.594;12.986;2022-12-29T01:13:31;13.40;;;7.73;;
14722;SDS011;7452;55.594;12.986;2022-12-29T01:15:59;11.10;;;7.30;;
14722;SDS011;7452;55.594;12.986;2022-12-29T01:18:26;12.37;;;6.80;;
14722;SDS011;7452;55.594;12.986;2022-12-29T01:20:59;10.97;;;6.83;;
14722;SDS011;7452;55.594;12.986;2022-12-29T01:23:28;10.73;;;6.40;;
14722;SDS011;7452;55.594;12.986;2022-12-29T01:26:03;12.13;;;6.67;;
14722;SDS011;7452;55.594;12.986;2022-12-29T01:28:35;13.37;;;6.80;;
14722;SDS011;7452;55.594;12.986;2022-12-29T01:31:05;9.70;;;6.30;;
14722;SDS011;7452;55.594;12.986;2022-12-29T01:33:34;12.03;;;6.20;;
14722;SDS011;7452;55.594;12.986;2022-12-29T01:36:02;10.60;;;6.17;;
14722;SDS011;7452;55.594;12.986;2022-12-29T01:38:29;10.83;;;6.07;;
14722;SDS011;7452;55.594;12.986;2022-12-29T01:40:58;8.73;;;5.57;;
14722;SDS011;7452;55.594;12.986;2022-12-29T01:43:37;10.20;;;6.47;;
14722;SDS011;7452;55.594;12.986;2022-12-29T01:46:06;9.23;;;6.40;;
14722;SDS011;7452;55.594;12.986;2022-12-29T01:48:42;9.63;;;5.80;;
14722;SDS011;7452;55.594;12.986;2022-12-29T01:51:11;7.70;;;5.40;;
14722;SDS011;7452;55.594;12.986;2022-12-29T01:53:40;11.10;;;5.77;;
14722;SDS011;7452;55.594;12.986;2022-12-29T01:56:10;8.60;;;6.23;;
14722;SDS011;7452;55.594;12.986;2022-12-29T01:58:41;11.97;;;5.93;;
14722;SDS011;7452;55.594;12.986;2022-12-29T02:01:12;8.90;;;6.23;;
14722;SDS011;7452;55.594;12.986;2022-12-29T02:03:40;9.40;;;6.10;;
14722;SDS011;7452;55.594;12.986;2022-12-29T02:06:10;8.40;;;5.40;;
14722;SDS011;7452;55.594;12.986;2022-12-29T02:08:43;7.97;;;5.63;;
14722;SDS011;7452;55.594;12.986;2022-12-29T02:11:14;8.47;;;5.97;;
14722;SDS011;7452;55.594;12.986;2022-12-29T02:13:42;11.20;;;6.13;;
14722;SDS011;7452;55.594;12.986;2022-12-29T02:16:14;9.23;;;6.17;;
14722;SDS011;7452;55.594;12.986;2022-12-29T02:19:03;8.47;;;5.80;;
14722;SDS011;7452;55.594;12.986;2022-12-29T02:21:56;6.60;;;5.20;;
14722;SDS011;7452;55.594;12.986;2022-12-29T02:24:44;8.87;;;5.33;;
14722;SDS011;7452;55.594;12.986;2022-12-29T02:27:43;6.43;;;5.23;;
14722;SDS011;7452;55.594;12.986;2022-12-29T02:33:19;8.13;;;6.10;;
14722;SDS011;7452;55.594;12.986;2022-12-29T02:35:56;8.83;;;5.23;;
14722;SDS011;7452;55.594;12.986;2022-12-29T02:38:37;7.60;;;5.13;;
14722;SDS011;7452;55.594;12.986;2022-12-29T02:41:19;7.67;;;5.47;;
14722;SDS011;7452;55.594;12.986;2022-12-29T02:43:51;8.17;;;5.80;;
14722;SDS011;7452;55.594;12.986;2022-12-29T02:46:28;8.87;;;6.00;;
14722;SDS011;7452;55.594;12.986;2022-12-29T02:49:04;7.43;;;5.77;;
14722;SDS011;7452;55.594;12.986;2022-12-29T02:51:39;10.90;;;6.27;;
14722;SDS011;7452;55.594;12.986;2022-12-29T02:54:11;9.80;;;6.40;;
14722;SDS011;7452;55.594;12.986;2022-12-29T02:57:00;9.10;;;5.87;;
14722;SDS011;7452;55.594;12.986;2022-12-29T02:59:28;9.83;;;6.43;;
14722;SDS011;7452;55.594;12.986;2022-12-29T03:02:03;10.23;;;6.70;;
14722;SDS011;7452;55.594;12.986;2022-12-29T03:04:46;8.20;;;6.10;;
14722;SDS011;7452;55.594;12.986;2022-12-29T03:07:32;11.17;;;7.40;;
14722;SDS011;7452;55.594;12.986;2022-12-29T03:10:11;12.00;;;6.83;;
14722;SDS011;7452;55.594;12.986;2022-12-29T03:12:46;9.37;;;6.40;;
14722;SDS011;7452;55.594;12.986;2022-12-29T03:15:40;8.70;;;7.20;;
14722;SDS011;7452;55.594;12.986;2022-12-29T03:18:34;11.07;;;6.70;;
14722;SDS011;7452;55.594;12.986;2022-12-29T03:21:14;11.50;;;6.70;;
14722;SDS011;7452;55.594;12.986;2022-12-29T03:23:47;9.57;;;7.23;;
14722;SDS011;7452;55.594;12.986;2022-12-29T03:26:17;10.80;;;7.77;;
14722;SDS011;7452;55.594;12.986;2022-12-29T03:28:47;11.20;;;7.57;;
14722;SDS011;7452;55.594;12.986;2022-12-29T03:31:19;12.17;;;7.90;;
14722;SDS011;7452;55.594;12.986;2022-12-29T03:33:51;14.20;;;8.00;;
14722;SDS011;7452;55.594;12.986;2022-12-29T03:36:23;12.57;;;7.73;;
14722;SDS011;7452;55.594;12.986;2022-12-29T03:38:58;12.37;;;7.50;;
14722;SDS011;7452;55.594;12.986;2022-12-29T03:41:28;10.53;;;8.37;;
14722;SDS011;7452;55.594;12.986;2022-12-29T03:44:02;11.43;;;8.57;;
14722;SDS011;7452;55.594;12.986;2022-12-29T03:46:33;17.60;;;9.83;;
14722;SDS011;7452;55.594;12.986;2022-12-29T03:49:06;13.30;;;8.87;;
14722;SDS011;7452;55.594;12.986;2022-12-29T03:51:33;14.90;;;9.60;;
14722;SDS011;7452;55.594;12.986;2022-12-29T03:54:00;18.30;;;9.30;;
14722;SDS011;7452;55.594;12.986;2022-12-29T03:56:29;13.67;;;8.70;;
14722;SDS011;7452;55.594;12.986;2022-12-29T03:58:57;14.23;;;9.23;;
14722;SDS011;7452;55.594;12.986;2022-12-29T04:01:24;12.07;;;8.13;;
14722;SDS011;7452;55.594;12.986;2022-12-29T04:03:51;12.77;;;8.10;;
14722;SDS011;7452;55.594;12.986;2022-12-29T04:06:20;14.87;;;8.67;;
14722;SDS011;7452;55.594;12.986;2022-12-29T04:08:48;13.77;;;8.30;;
14722;SDS011;7452;55.594;12.986;2022-12-29T04:11:16;14.43;;;8.60;;
14722;SDS011;7452;55.594;12.986;2022-12-29T04:13:44;14.27;;;8.33;;
14722;SDS011;7452;55.594;12.986;2022-12-29T04:16:12;13.40;;;8.77;;
14722;SDS011;7452;55.594;12.986;2022-12-29T04:18:39;13.70;;;8.20;;
14722;SDS011;7452;55.594;12.986;2022-12-29T04:21:06;15.97;;;8.30;;
14722;SDS011;7452;55.594;12.986;2022-12-29T04:23:36;14.30;;;8.47;;
14722;SDS011;7452;55.594;12.986;2022-12-29T04:26:04;12.67;;;7.87;;
14722;SDS011;7452;55.594;12.986;2022-12-29T04:28:34;13.80;;;8.20;;
14722;SDS011;7452;55.594;12.986;2022-12-29T04:31:01;10.87;;;7.47;;
14722;SDS011;7452;55.594;12.986;2022-12-29T04:33:29;14.33;;;8.37;;
14722;SDS011;7452;55.594;12.986;2022-12-29T04:35:57;12.20;;;7.97;;
14722;SDS011;7452;55.594;12.986;2022-12-29T04:38:25;13.67;;;8.73;;
14722;SDS011;7452;55.594;12.986;2022-12-29T04:40:58;17.17;;;8.50;;
14722;SDS011;7452;55.594;12.986;2022-12-29T04:43:26;11.70;;;8.60;;
14722;SDS011;7452;55.594;12.986;2022-12-29T04:45:53;12.87;;;8.90;;
14722;SDS011;7452;55.594;12.986;2022-12-29T04:48:21;14.23;;;8.43;;
14722;SDS011;7452;55.594;12.986;2022-12-29T04:50:49;12.40;;;8.73;;
14722;SDS011;7452;55.594;12.986;2022-12-29T04:53:17;12.00;;;8.60;;
14722;SDS011;7452;55.594;12.986;2022-12-29T04:55:47;11.80;;;8.27;;
14722;SDS011;7452;55.594;12.986;2022-12-29T04:58:16;14.33;;;8.83;;
14722;SDS011;7452;55.594;12.986;2022-12-29T05:00:43;12.97;;;8.63;;
14722;SDS011;7452;55.594;12.986;2022-12-29T05:03:15;10.83;;;7.80;;
14722;SDS011;7452;55.594;12.986;2022-12-29T05:05:42;11.80;;;8.00;;
14722;SDS011;7452;55.594;12.986;2022-12-29T05:08:10;13.20;;;8.33;;
14722;SDS011;7452;55.594;12.986;2022-12-29T05:10:38;11.87;;;7.83;;
14722;SDS011;7452;55.594;12.986;2022-12-29T05:13:05;11.20;;;8.53;;
14722;SDS011;7452;55.594;12.986;2022-12-29T05:15:35;11.03;;;7.53;;
14722;SDS011;7452;55.594;12.986;2022-12-29T05:18:04;10.50;;;7.57;;
14722;SDS011;7452;55.594;12.986;2022-12-29T05:20:31;11.50;;;7.77;;
14722;SDS011;7452;55.594;12.986;2022-12-29T05:23:00;14.03;;;7.60;;
14722;SDS011;7452;55.594;12.986;2022-12-29T05:25:29;10.50;;;7.40;;
14722;SDS011;7452;55.594;12.986;2022-12-29T05:27:57;11.93;;;7.47;;
14722;SDS011;7452;55.594;12.986;2022-12-29T05:30:24;10.03;;;7.30;;
14722;SDS011;7452;55.594;12.986;2022-12-29T05:32:53;9.97;;;7.80;;
14722;SDS011;7452;55.594;12.986;2022-12-29T05:35:22;10.97;;;7.70;;
14722;SDS011;7452;55.594;12.986;2022-12-29T05:37:55;13.97;;;8.77;;
14722;SDS011;7452;55.594;12.986;2022-12-29T05:40:23;8.83;;;7.93;;
14722;SDS011;7452;55.594;12.986;2022-12-29T05:42:50;13.37;;;8.53;;
14722;SDS011;7452;55.594;12.986;2022-12-29T05:45:19;13.97;;;8.90;;
14722;SDS011;7452;55.594;12.986;2022-12-29T05:47:46;12.37;;;8.73;;
14722;SDS011;7452;55.594;12.986;2022-12-29T05:50:16;10.47;;;9.00;;
14722;SDS011;7452;55.594;12.986;2022-12-29T05:52:42;13.40;;;8.43;;
14722;SDS011;7452;55.594;12.986;2022-12-29T05:55:12;11.37;;;8.20;;
14722;SDS011;7452;55.594;12.986;2022-12-29T05:57:42;13.40;;;8.30;;
14722;SDS011;7452;55.594;12.986;2022-12-29T06:00:13;11.00;;;7.80;;
14722;SDS011;7452;55.594;12.986;2022-12-29T06:02:41;12.50;;;8.53;;
14722;SDS011;7452;55.594;12.986;2022-12-29T06:05:09;13.13;;;8.83;;
14722;SDS011;7452;55.594;12.986;2022-12-29T06:07:45;13.93;;;8.67;;
14722;SDS011;7452;55.594;12.986;2022-12-29T06:10:12;9.93;;;7.80;;
14722;SDS011;7452;55.594;12.986;2022-12-29T06:12:40;12.53;;;8.27;;
14722;SDS011;7452;55.594;12.986;2022-12-29T06:15:10;9.17;;;7.33;;
14722;SDS011;7452;55.594;12.986;2022-12-29T06:17:40;11.07;;;7.53;;
14722;SDS011;7452;55.594;12.986;2022-12-29T06:20:08;12.13;;;7.43;;
14722;SDS011;7452;55.594;12.986;2022-12-29T06:22:35;11.30;;;7.70;;
14722;SDS011;7452;55.594;12.986;2022-12-29T06:25:05;11.60;;;7.20;;
14722;SDS011;7452;55.594;12.986;2022-12-29T06:27:33;12.20;;;7.83;;
14722;SDS011;7452;55.594;12.986;2022-12-29T06:30:00;12.33;;;7.70;;
14722;SDS011;7452;55.594;12.986;2022-12-29T06:32:27;10.73;;;7.70;;
14722;SDS011;7452;55.594;12.986;2022-12-29T06:34:55;17.20;;;8.23;;
14722;SDS011;7452;55.594;12.986;2022-12-29T06:37:22;11.27;;;7.60;;
14722;SDS011;7452;55.594;12.986;2022-12-29T06:39:50;12.47;;;7.77;;
14722;SDS011;7452;55.594;12.986;2022-12-29T06:42:31;13.70;;;8.40;;
14722;SDS011;7452;55.594;12.986;2022-12-29T06:44:58;9.33;;;7.30;;
14722;SDS011;7452;55.594;12.986;2022-12-29T06:47:26;10.67;;;7.10;;
14722;SDS011;7452;55.594;12.986;2022-12-29T06:49:54;8.90;;;6.87;;
14722;SDS011;7452;55.594;12.986;2022-12-29T06:52:21;8.17;;;6.70;;
14722;SDS011;7452;55.594;12.986;2022-12-29T06:54:49;12.40;;;7.20;;
14722;SDS011;7452;55.594;12.986;2022-12-29T06:57:17;9.00;;;6.77;;
14722;SDS011;7452;55.594;12.986;2022-12-29T06:59:46;10.47;;;6.83;;
14722;SDS011;7452;55.594;12.986;2022-12-29T07:02:13;11.20;;;6.73;;
14722;SDS011;7452;55.594;12.986;2022-12-29T07:04:43;8.60;;;6.43;;
14722;SDS011;7452;55.594;12.986;2022-12-29T07:07:10;16.17;;;7.40;;
14722;SDS011;7452;55.594;12.986;2022-12-29T07:09:37;8.93;;;6.37;;
14722;SDS011;7452;55.594;12.986;2022-12-29T07:12:06;11.57;;;6.80;;
14722;SDS011;7452;55.594;12.986;2022-12-29T07:14:35;10.97;;;6.40;;
14722;SDS011;7452;55.594;12.986;2022-12-29T07:17:07;10.53;;;6.20;;
14722;SDS011;7452;55.594;12.986;2022-12-29T07:19:36;9.93;;;6.87;;
14722;SDS011;7452;55.594;12.986;2022-12-29T07:22:07;11.80;;;6.20;;
14722;SDS011;7452;55.594;12.986;2022-12-29T07:24:35;9.50;;;5.87;;
14722;SDS011;7452;55.594;12.986;2022-12-29T07:27:03;10.90;;;5.90;;
14722;SDS011;7452;55.594;12.986;2022-12-29T07:29:30;9.33;;;5.37;;
14722;SDS011;7452;55.594;12.986;2022-12-29T07:31:57;6.47;;;5.30;;
14722;SDS011;7452;55.594;12.986;2022-12-29T07:34:29;9.27;;;6.20;;
14722;SDS011;7452;55.594;12.986;2022-12-29T07:36:56;7.47;;;5.63;;
14722;SDS011;7452;55.594;12.986;2022-12-29T07:39:23;8.30;;;5.53;;
14722;SDS011;7452;55.594;12.986;2022-12-29T07:41:55;8.33;;;5.03;;
14722;SDS011;7452;55.594;12.986;2022-12-29T07:44:23;6.60;;;4.63;;
14722;SDS011;7452;55.594;12.986;2022-12-29T07:46:56;8.77;;;4.93;;
14722;SDS011;7452;55.594;12.986;2022-12-29T07:49:24;6.93;;;4.60;;
14722;SDS011;7452;55.594;12.986;2022-12-29T07:51:54;6.30;;;4.37;;
14722;SDS011;7452;55.594;12.986;2022-12-29T07:54:25;9.60;;;4.67;;
14722;SDS011;7452;55.594;12.986;2022-12-29T07:56:52;10.43;;;4.00;;
14722;SDS011;7452;55.594;12.986;2022-12-29T07:59:19;6.47;;;4.10;;
14722;SDS011;7452;55.594;12.986;2022-12-29T08:01:49;9.93;;;4.67;;
14722;SDS011;7452;55.594;12.986;2022-12-29T08:04:17;6.13;;;4.50;;
14722;SDS011;7452;55.594;12.986;2022-12-29T08:06:46;8.03;;;5.00;;
14722;SDS011;7452;55.594;12.986;2022-12-29T08:09:14;6.53;;;3.83;;
14722;SDS011;7452;55.594;12.986;2022-12-29T08:11:42;6.67;;;4.20;;
14722;SDS011;7452;55.594;12.986;2022-12-29T08:14:11;9.07;;;4.60;;
14722;SDS011;7452;55.594;12.986;2022-12-29T08:16:38;7.73;;;4.43;;
14722;SDS011;7452;55.594;12.986;2022-12-29T08:19:06;11.13;;;4.70;;
14722;SDS011;7452;55.594;12.986;2022-12-29T08:21:36;10.10;;;4.17;;
14722;SDS011;7452;55.594;12.986;2022-12-29T08:24:05;7.13;;;4.07;;
14722;SDS011;7452;55.594;12.986;2022-12-29T08:26:32;8.00;;;4.27;;
14722;SDS011;7452;55.594;12.986;2022-12-29T08:29:02;7.80;;;4.20;;
14722;SDS011;7452;55.594;12.986;2022-12-29T08:31:29;11.87;;;4.17;;
14722;SDS011;7452;55.594;12.986;2022-12-29T08:33:58;11.50;;;4.30;;
14722;SDS011;7452;55.594;12.986;2022-12-29T08:36:28;6.97;;;3.77;;
14722;SDS011;7452;55.594;12.986;2022-12-29T08:38:55;10.60;;;4.13;;
14722;SDS011;7452;55.594;12.986;2022-12-29T08:41:24;6.03;;;3.73;;
14722;SDS011;7452;55.594;12.986;2022-12-29T08:43:52;8.53;;;3.67;;
14722;SDS011;7452;55.594;12.986;2022-12-29T08:46:25;8.43;;;3.40;;
14722;SDS011;7452;55.594;12.986;2022-12-29T08:48:54;7.03;;;3.40;;
14722;SDS011;7452;55.594;12.986;2022-12-29T08:51:22;10.30;;;3.90;;
14722;SDS011;7452;55.594;12.986;2022-12-29T08:53:49;9.63;;;4.00;;
14722;SDS011;7452;55.594;12.986;2022-12-29T08:56:16;9.27;;;3.63;;
14722;SDS011;7452;55.594;12.986;2022-12-29T08:58:48;8.27;;;3.77;;
14722;SDS011;7452;55.594;12.986;2022-12-29T09:01:16;6.07;;;3.40;;
14722;SDS011;7452;55.594;12.986;2022-12-29T09:03:44;5.70;;;3.20;;
14722;SDS011;7452;55.594;12.986;2022-12-29T09:06:13;7.40;;;3.30;;
14722;SDS011;7452;55.594;12.986;2022-12-29T09:08:40;6.67;;;2.90;;
14722;SDS011;7452;55.594;12.986;2022-12-29T09:11:10;9.03;;;3.30;;
14722;SDS011;7452;55.594;12.986;2022-12-29T09:13:40;8.37;;;3.33;;
14722;SDS011;7452;55.594;12.986;2022-12-29T09:16:12;8.10;;;2.73;;
14722;SDS011;7452;55.594;12.986;2022-12-29T09:18:42;9.23;;;3.23;;
14722;SDS011;7452;55.594;12.986;2022-12-29T09:21:09;10.73;;;3.00;;
14722;SDS011;7452;55.594;12.986;2022-12-29T09:23:37;4.63;;;3.10;;
14722;SDS011;7452;55.594;12.986;2022-12-29T09:26:07;7.27;;;3.10;;
14722;SDS011;7452;55.594;12.986;2022-12-29T09:28:43;5.97;;;3.27;;
14722;SDS011;7452;55.594;12.986;2022-12-29T09:31:14;9.03;;;3.23;;
14722;SDS011;7452;55.594;12.986;2022-12-29T09:33:42;8.17;;;3.60;;
14722;SDS011;7452;55.594;12.986;2022-12-29T09:36:09;5.47;;;3.33;;
14722;SDS011;7452;55.594;12.986;2022-12-29T09:38:38;6.23;;;3.13;;
14722;SDS011;7452;55.594;12.986;2022-12-29T09:41:10;6.73;;;3.17;;
14722;SDS011;7452;55.594;12.986;2022-12-29T09:43:51;6.47;;;3.40;;
14722;SDS011;7452;55.594;12.986;2022-12-29T09:46:28;7.10;;;3.60;;
14722;SDS011;7452;55.594;12.986;2022-12-29T09:49:07;7.63;;;3.50;;
14722;SDS011;7452;55.594;12.986;2022-12-29T09:51:44;5.53;;;3.23;;
14722;SDS011;7452;55.594;12.986;2022-12-29T09:57:12;6.40;;;3.47;;
14722;SDS011;7452;55.594;12.986;2022-12-29T09:59:44;6.87;;;3.33;;
14722;SDS011;7452;55.594;12.986;2022-12-29T10:05:03;8.13;;;3.40;;
14722;SDS011;7452;55.594;12.986;2022-12-29T10:07:40;4.20;;;3.30;;
14722;SDS011;7452;55.594;12.986;2022-12-29T10:10:22;6.63;;;3.33;;
14722;SDS011;7452;55.594;12.986;2022-12-29T10:13:10;4.57;;;3.20;;
14722;SDS011;7452;55.594;12.986;2022-12-29T10:15:52;5.47;;;3.20;;
14722;SDS011;7452;55.594;12.986;2022-12-29T10:21:28;7.10;;;3.40;;
14722;SDS011;7452;55.594;12.986;2022-12-29T10:24:09;4.27;;;2.90;;
14722;SDS011;7452;55.594;12.986;2022-12-29T10:26:39;7.13;;;3.40;;
14722;SDS011;7452;55.594;12.986;2022-12-29T10:29:11;6.93;;;3.20;;
14722;SDS011;7452;55.594;12.986;2022-12-29T10:31:44;7.97;;;3.40;;
14722;SDS011;7452;55.594;12.986;2022-12-29T10:34:27;9.03;;;3.10;;
14722;SDS011;7452;55.594;12.986;2022-12-29T10:37:02;8.57;;;2.77;;
14722;SDS011;7452;55.594;12.986;2022-12-29T10:39:38;6.63;;;3.03;;
14722;SDS011;7452;55.594;12.986;2022-12-29T10:42:13;5.57;;;3.13;;
14722;SDS011;7452;55.594;12.986;2022-12-29T10:44:48;6.83;;;3.20;;
14722;SDS011;7452;55.594;12.986;2022-12-29T10:47:17;6.63;;;3.40;;
14722;SDS011;7452;55.594;12.986;2022-12-29T10:52:49;5.37;;;2.07;;
14722;SDS011;7452;55.594;12.986;2022-12-29T10:55:19;6.60;;;2.27;;
14722;SDS011;7452;55.594;12.986;2022-12-29T10:57:56;7.43;;;2.27;;
14722;SDS011;7452;55.594;12.986;2022-12-29T11:00:30;4.17;;;1.97;;
14722;SDS011;7452;55.594;12.986;2022-12-29T11:03:16;4.63;;;2.03;;
14722;SDS011;7452;55.594;12.986;2022-12-29T11:06:00;4.63;;;2.00;;
14722;SDS011;7452;55.594;12.986;2022-12-29T11:08:33;5.07;;;1.90;;
14722;SDS011;7452;55.594;12.986;2022-12-29T11:11:06;4.83;;;2.30;;
14722;SDS011;7452;55.594;12.986;2022-12-29T11:13:46;4.77;;;1.80;;
14722;SDS011;7452;55.594;12.986;2022-12-29T11:16:14;5.07;;;1.80;;
14722;SDS011;7452;55.594;12.986;2022-12-29T11:18:55;4.27;;;2.13;;
14722;SDS011;7452;55.594;12.986;2022-12-29T11:21:26;5.00;;;2.60;;
14722;SDS011;7452;55.594;12.986;2022-12-29T11:24:05;3.63;;;2.30;;
14722;SDS011;7452;55.594;12.986;2022-12-29T11:26:48;5.27;;;2.53;;
14722;SDS011;7452;55.594;12.986;2022-12-29T11:29:21;3.67;;;2.10;;
14722;SDS011;7452;55.594;12.986;2022-12-29T11:31:51;6.67;;;2.10;;
14722;SDS011;7452;55.594;12.986;2022-12-29T11:34:21;6.47;;;2.13;;
14722;SDS011;7452;55.594;12.986;2022-12-29T11:36:53;6.10;;;2.40;;
14722;SDS011;7452;55.594;12.986;2022-12-29T11:39:33;3.77;;;2.20;;
14722;SDS011;7452;55.594;12.986;2022-12-29T11:42:05;5.80;;;2.33;;
14722;SDS011;7452;55.594;12.986;2022-12-29T11:44:42;5.43;;;2.20;;
14722;SDS011;7452;55.594;12.986;2022-12-29T11:47:20;3.50;;;2.10;;
14722;SDS011;7452;55.594;12.986;2022-12-29T11:49:52;4.27;;;1.67;;
14722;SDS011;7452;55.594;12.986;2022-12-29T11:52:26;5.23;;;2.10;;
14722;SDS011;7452;55.594;12.986;2022-12-29T11:54:58;5.33;;;2.17;;
14722;SDS011;7452;55.594;12.986;2022-12-29T11:57:35;6.27;;;2.00;;
14722;SDS011;7452;55.594;12.986;2022-12-29T12:00:09;6.53;;;1.90;;
14722;SDS011;7452;55.594;12.986;2022-12-29T12:02:44;4.90;;;1.73;;
14722;SDS011;7452;55.594;12.986;2022-12-29T12:05:20;5.33;;;1.90;;
14722;SDS011;7452;55.594;12.986;2022-12-29T12:07:54;5.57;;;2.00;;
14722;SDS011;7452;55.594;12.986;2022-12-29T12:10:27;4.87;;;1.60;;
14722;SDS011;7452;55.594;12.986;2022-12-29T12:13:02;6.57;;;1.77;;
14722;SDS011;7452;55.594;12.986;2022-12-29T12:15:39;6.00;;;2.00;;
14722;SDS011;7452;55.594;12.986;2022-12-29T12:18:11;7.67;;;2.17;;
14722;SDS011;7452;55.594;12.986;2022-12-29T12:20:45;5.73;;;2.27;;
14722;SDS011;7452;55.594;12.986;2022-12-29T12:26:10;4.60;;;1.90;;
14722;SDS011;7452;55.594;12.986;2022-12-29T12:28:42;5.60;;;2.13;;
14722;SDS011;7452;55.594;12.986;2022-12-29T12:31:17;4.97;;;2.00;;
14722;SDS011;7452;55.594;12.986;2022-12-29T12:33:53;5.83;;;1.73;;
14722;SDS011;7452;55.594;12.986;2022-12-29T12:36:29;6.67;;;1.90;;
14722;SDS011;7452;55.594;12.986;2022-12-29T12:39:19;3.30;;;1.60;;
14722;SDS011;7452;55.594;12.986;2022-12-29T12:41:56;6.50;;;2.70;;
14722;SDS011;7452;55.594;12.986;2022-12-29T12:44:36;3.97;;;1.87;;
14722;SDS011;7452;55.594;12.986;2022-12-29T12:47:15;4.77;;;1.70;;
14722;SDS011;7452;55.594;12.986;2022-12-29T12:53:07;7.03;;;1.70;;
14722;SDS011;7452;55.594;12.986;2022-12-29T12:55:50;6.10;;;2.30;;
14722;SDS011;7452;55.594;12.986;2022-12-29T12:58:40;6.00;;;1.90;;
14722;SDS011;7452;55.594;12.986;2022-12-29T13:01:19;6.60;;;1.93;;
14722;SDS011;7452;55.594;12.986;2022-12-29T13:03:59;5.27;;;1.60;;
14722;SDS011;7452;55.594;12.986;2022-12-29T13:06:41;5.40;;;1.80;;
14722;SDS011;7452;55.594;12.986;2022-12-29T13:09:23;5.07;;;1.87;;
14722;SDS011;7452;55.594;12.986;2022-12-29T13:12:06;3.80;;;1.77;;
14722;SDS011;7452;55.594;12.986;2022-12-29T13:14:47;4.90;;;2.03;;
14722;SDS011;7452;55.594;12.986;2022-12-29T13:17:24;5.87;;;2.50;;
14722;SDS011;7452;55.594;12.986;2022-12-29T13:19:59;9.73;;;2.10;;
14722;SDS011;7452;55.594;12.986;2022-12-29T13:22:36;5.90;;;2.03;;
14722;SDS011;7452;55.594;12.986;2022-12-29T13:25:16;3.87;;;1.87;;
14722;SDS011;7452;55.594;12.986;2022-12-29T13:27:53;9.50;;;2.00;;
14722;SDS011;7452;55.594;12.986;2022-12-29T13:30:28;3.20;;;1.80;;
14722;SDS011;7452;55.594;12.986;2022-12-29T13:33:02;7.37;;;2.10;;
14722;SDS011;7452;55.594;12.986;2022-12-29T13:35:42;4.13;;;1.90;;
14722;SDS011;7452;55.594;12.986;2022-12-29T13:38:18;5.20;;;1.70;;
14722;SDS011;7452;55.594;12.986;2022-12-29T13:40:51;4.50;;;1.63;;
14722;SDS011;7452;55.594;12.986;2022-12-29T13:43:23;7.53;;;1.90;;
14722;SDS011;7452;55.594;12.986;2022-12-29T13:45:55;6.70;;;1.80;;
14722;SDS011;7452;55.594;12.986;2022-12-29T13:48:28;8.33;;;1.90;;
14722;SDS011;7452;55.594;12.986;2022-12-29T13:51:03;6.10;;;2.30;;
14722;SDS011;7452;55.594;12.986;2022-12-29T13:53:36;5.87;;;2.43;;
14722;SDS011;7452;55.594;12.986;2022-12-29T13:56:11;6.37;;;1.90;;
14722;SDS011;7452;55.594;12.986;2022-12-29T13:58:47;6.23;;;2.17;;
14722;SDS011;7452;55.594;12.986;2022-12-29T14:01:20;5.13;;;2.10;;
14722;SDS011;7452;55.594;12.986;2022-12-29T14:03:56;4.47;;;2.03;;
14722;SDS011;7452;55.594;12.986;2022-12-29T14:06:25;5.93;;;1.77;;
14722;SDS011;7452;55.594;12.986;2022-12-29T14:08:54;6.43;;;1.93;;
14722;SDS011;7452;55.594;12.986;2022-12-29T14:11:24;6.60;;;2.37;;
14722;SDS011;7452;55.594;12.986;2022-12-29T14:13:59;5.63;;;1.83;;
14722;SDS011;7452;55.594;12.986;2022-12-29T14:16:37;6.00;;;1.67;;
14722;SDS011;7452;55.594;12.986;2022-12-29T14:19:09;7.70;;;1.70;;
14722;SDS011;7452;55.594;12.986;2022-12-29T14:21:49;3.97;;;1.80;;
14722;SDS011;7452;55.594;12.986;2022-12-29T14:24:38;4.90;;;1.60;;
14722;SDS011;7452;55.594;12.986;2022-12-29T14:33:19;5.30;;;1.87;;
14722;SDS011;7452;55.594;12.986;2022-12-29T14:35:48;5.67;;;1.70;;
14722;SDS011;7452;55.594;12.986;2022-12-29T14:38:18;9.53;;;2.27;;
14722;SDS011;7452;55.594;12.986;2022-12-29T14:40:51;5.57;;;1.90;;
14722;SDS011;7452;55.594;12.986;2022-12-29T14:43:40;4.67;;;2.27;;
14722;SDS011;7452;55.594;12.986;2022-12-29T14:46:21;7.53;;;2.10;;
14722;SDS011;7452;55.594;12.986;2022-12-29T14:48:52;4.93;;;2.00;;
14722;SDS011;7452;55.594;12.986;2022-12-29T14:51:30;5.37;;;2.17;;
14722;SDS011;7452;55.594;12.986;2022-12-29T14:54:01;7.47;;;2.40;;
14722;SDS011;7452;55.594;12.986;2022-12-29T14:57:26;6.97;;;2.27;;
14722;SDS011;7452;55.594;12.986;2022-12-29T14:59:58;9.97;;;2.33;;
14722;SDS011;7452;55.594;12.986;2022-12-29T15:02:34;10.27;;;2.37;;
14722;SDS011;7452;55.594;12.986;2022-12-29T15:05:10;7.53;;;2.43;;
14722;SDS011;7452;55.594;12.986;2022-12-29T15:07:51;7.90;;;2.40;;
14722;SDS011;7452;55.594;12.986;2022-12-29T15:10:19;7.87;;;2.40;;
14722;SDS011;7452;55.594;12.986;2022-12-29T15:12:49;8.30;;;2.60;;
14722;SDS011;7452;55.594;12.986;2022-12-29T15:15:23;7.70;;;2.60;;
14722;SDS011;7452;55.594;12.986;2022-12-29T15:17:56;10.07;;;3.10;;
14722;SDS011;7452;55.594;12.986;2022-12-29T15:20:24;5.33;;;3.17;;
14722;SDS011;7452;55.594;12.986;2022-12-29T15:22:55;9.40;;;3.20;;
14722;SDS011;7452;55.594;12.986;2022-12-29T15:25:25;5.33;;;2.43;;
14722;SDS011;7452;55.594;12.986;2022-12-29T15:27:53;6.87;;;2.33;;
14722;SDS011;7452;55.594;12.986;2022-12-29T15:30:23;6.93;;;2.90;;
14722;SDS011;7452;55.594;12.986;2022-12-29T15:32:50;11.03;;;2.60;;
14722;SDS011;7452;55.594;12.986;2022-12-29T15:35:33;7.97;;;3.33;;
14722;SDS011;7452;55.594;12.986;2022-12-29T15:38:12;9.77;;;2.90;;
14722;SDS011;7452;55.594;12.986;2022-12-29T15:40:41;10.43;;;3.13;;
14722;SDS011;7452;55.594;12.986;2022-12-29T15:43:14;13.37;;;3.47;;